METAR Data
IDs: Format: Raw Decoded Include TAF

Data at: 1420 UTC 21 Aug 2019

KRZL 211415Z AUTO 00000KT 10SM CLR 22/20 A2999 RMK AO2